createdAt,value
2018-02-05T00:00:01.719Z,-0.53
2018-02-05T00:00:05.510Z,-0.52
2018-02-05T00:00:09.296Z,-0.51
2018-02-05T00:00:13.295Z,-0.52
2018-02-05T00:00:17.522Z,-0.53
2018-02-05T00:00:21.517Z,-0.52
2018-02-05T00:00:25.424Z,-0.52
2018-02-05T00:00:29.325Z,-0.51
2018-02-05T00:00:33.113Z,-0.52
2018-02-05T00:00:37.111Z,-0.52
2018-02-05T00:00:41.004Z,-0.51
2018-02-05T00:00:45.220Z,-0.5
2018-02-05T00:00:49.107Z,-0.51
2018-02-05T00:00:53.104Z,-0.49
2018-02-05T00:00:57.104Z,-0.5
2018-02-05T00:01:01.180Z,-0.5
2018-02-05T00:01:05.130Z,-0.5
2018-02-05T00:01:09.128Z,-0.5
2018-02-05T00:01:13.234Z,-0.5
2018-02-05T00:01:17.344Z,-0.51
2018-02-05T00:01:21.029Z,-0.51
2018-02-05T00:01:24.817Z,-0.49
2018-02-05T00:01:28.714Z,-0.49
2018-02-05T00:01:32.715Z,-0.5
2018-02-05T00:01:36.827Z,-0.49
2018-02-05T00:01:40.722Z,-0.5
2018-02-05T00:01:44.616Z,-0.49
2018-02-05T00:01:48.404Z,-0.49
2018-02-05T00:01:52.416Z,-0.49
2018-02-05T00:01:56.310Z,-0.5
2018-02-05T00:02:00.427Z,-0.49
2018-02-05T00:02:04.373Z,-0.49
2018-02-05T00:02:08.158Z,-0.49
2018-02-05T00:02:12.161Z,-0.48
2018-02-05T00:02:16.155Z,-0.48
2018-02-05T00:02:20.198Z,-0.47
2018-02-05T00:02:24.522Z,-0.48
2018-02-05T00:02:28.311Z,-0.47
2018-02-05T00:02:32.101Z,-0.47
2018-02-05T00:02:36.205Z,-0.47
2018-02-05T00:02:40.001Z,-0.47
2018-02-05T00:02:44.105Z,-0.46
2018-02-05T00:02:47.792Z,-0.47
2018-02-05T00:02:51.678Z,-0.46
2018-02-05T00:02:55.359Z,-0.45
2018-02-05T00:02:59.359Z,-0.46
2018-02-05T00:03:03.556Z,-0.45
2018-02-05T00:03:07.558Z,-0.45
2018-02-05T00:03:11.664Z,-0.46
2018-02-05T00:03:15.766Z,-0.45
2018-02-05T00:03:19.974Z,-0.44
2018-02-05T00:03:23.768Z,-0.44
2018-02-05T00:03:27.444Z,-0.44
2018-02-05T00:03:31.337Z,-0.45
2018-02-05T00:03:35.335Z,-0.43
2018-02-05T00:03:39.229Z,-0.43
2018-02-05T00:03:43.011Z,-0.43
2018-02-05T00:03:46.803Z,-0.43
2018-02-05T00:03:50.905Z,-0.42
2018-02-05T00:03:54.796Z,-0.42
2018-02-05T00:03:58.692Z,-0.42
2018-02-05T00:04:02.695Z,-0.42
2018-02-05T00:04:06.800Z,-0.41
2018-02-05T00:04:10.601Z,-0.41
2018-02-05T00:04:14.704Z,-0.41
2018-02-05T00:04:18.487Z,-0.41
2018-02-05T00:04:22.490Z,-0.4
2018-02-05T00:04:26.277Z,-0.4
2018-02-05T00:04:30.271Z,-0.39
2018-02-05T00:04:34.157Z,-0.4
2018-02-05T00:04:38.163Z,-0.4
2018-02-05T00:04:42.161Z,-0.39
2018-02-05T00:04:46.055Z,-0.39
2018-02-05T00:04:50.059Z,-0.39
2018-02-05T00:04:54.059Z,-0.39
2018-02-05T00:04:57.846Z,-0.39
2018-02-05T00:05:02.248Z,-0.39
2018-02-05T00:05:06.254Z,-0.37
2018-02-05T00:05:10.153Z,-0.37
2018-02-05T00:05:14.155Z,-0.37
2018-02-05T00:05:18.151Z,-0.37
2018-02-05T00:05:21.943Z,-0.37
2018-02-05T00:05:25.938Z,-0.37
2018-02-05T00:05:29.832Z,-0.37
2018-02-05T00:05:33.839Z,-0.36
2018-02-05T00:05:37.733Z,-0.36
2018-02-05T00:05:41.728Z,-0.36
2018-02-05T00:05:45.723Z,-0.36
2018-02-05T00:05:49.618Z,-0.35
2018-02-05T00:05:53.514Z,-0.36
2018-02-05T00:05:57.406Z,-0.35
2018-02-05T00:06:01.193Z,-0.35
2018-02-05T00:06:05.031Z,-0.35
2018-02-05T00:06:09.072Z,-0.34
2018-02-05T00:06:13.344Z,-0.35
2018-02-05T00:06:17.349Z,-0.34
2018-02-05T00:06:21.350Z,-0.35
2018-02-05T00:06:25.347Z,-0.34
2018-02-05T00:06:29.448Z,-0.35
2018-02-05T00:06:33.240Z,-0.34
2018-02-05T00:06:37.339Z,-0.34
2018-02-05T00:06:41.338Z,-0.34
2018-02-05T00:06:45.339Z,-0.33
2018-02-05T00:06:49.234Z,-0.34
2018-02-05T00:06:53.235Z,-0.33
2018-02-05T00:06:57.400Z,-0.33
2018-02-05T00:07:01.407Z,-0.33
2018-02-05T00:07:05.450Z,-0.34
2018-02-05T00:07:09.339Z,-0.32
2018-02-05T00:07:13.351Z,-0.33
2018-02-05T00:07:17.453Z,-0.34
2018-02-05T00:07:21.288Z,-0.33
2018-02-05T00:07:25.079Z,-0.32
2018-02-05T00:07:28.865Z,-0.33
2018-02-05T00:07:32.797Z,-0.32
2018-02-05T00:07:36.591Z,-0.33
2018-02-05T00:07:40.383Z,-0.33
2018-02-05T00:07:44.379Z,-0.32
2018-02-05T00:07:48.375Z,-0.32
2018-02-05T00:07:52.165Z,-0.32
2018-02-05T00:07:56.273Z,-0.32
2018-02-05T00:08:00.483Z,-0.32
2018-02-05T00:08:04.534Z,-0.33
2018-02-05T00:08:08.430Z,-0.32
2018-02-05T00:08:12.322Z,-0.32
2018-02-05T00:08:16.218Z,-0.32
2018-02-05T00:08:20.011Z,-0.32
2018-02-05T00:08:24.008Z,-0.32
2018-02-05T00:08:27.903Z,-0.31
2018-02-05T00:08:32.110Z,-0.32
2018-02-05T00:08:35.903Z,-0.32
2018-02-05T00:08:39.802Z,-0.31
2018-02-05T00:08:43.796Z,-0.31
2018-02-05T00:08:47.687Z,-0.32
2018-02-05T00:08:51.829Z,-0.32
2018-02-05T00:08:55.726Z,-0.32
2018-02-05T00:08:59.833Z,-0.31
2018-02-05T00:09:03.623Z,-0.31
2018-02-05T00:09:07.617Z,-0.31
2018-02-05T00:09:11.508Z,-0.31
2018-02-05T00:09:15.714Z,-0.31
2018-02-05T00:09:19.503Z,-0.31
2018-02-05T00:09:23.400Z,-0.32
2018-02-05T00:09:27.297Z,-0.31
2018-02-05T00:09:31.191Z,-0.31
2018-02-05T00:09:35.297Z,-0.31
2018-02-05T00:09:39.187Z,-0.31
2018-02-05T00:09:42.971Z,-0.31
2018-02-05T00:09:46.758Z,-0.31
2018-02-05T00:09:50.542Z,-0.32
2018-02-05T00:09:54.539Z,-0.31
2018-02-05T00:09:58.751Z,-0.31
2018-02-05T00:10:02.697Z,-0.31
2018-02-05T00:10:06.596Z,-0.3
2018-02-05T00:10:10.704Z,-0.31
2018-02-05T00:10:14.812Z,-0.31
2018-02-05T00:10:18.812Z,-0.31
2018-02-05T00:10:23.021Z,-0.3
2018-02-05T00:10:27.134Z,-0.31
2018-02-05T00:10:31.022Z,-0.31
2018-02-05T00:10:35.016Z,-0.31
2018-02-05T00:10:38.913Z,-0.31
2018-02-05T00:10:43.230Z,-0.31
2018-02-05T00:10:47.020Z,-0.31
2018-02-05T00:10:50.805Z,-0.31
2018-02-05T00:10:54.907Z,-0.31
2018-02-05T00:10:59.014Z,-0.31
2018-02-05T00:11:03.111Z,-0.32
2018-02-05T00:11:07.010Z,-0.3
2018-02-05T00:11:10.904Z,-0.32
2018-02-05T00:11:14.901Z,-0.31
2018-02-05T00:11:18.900Z,-0.31
2018-02-05T00:11:22.898Z,-0.31
2018-02-05T00:11:26.905Z,-0.31
2018-02-05T00:11:30.913Z,-0.31
2018-02-05T00:11:35.018Z,-0.31
2018-02-05T00:11:38.696Z,-0.31
2018-02-05T00:11:42.694Z,-0.31
2018-02-05T00:11:46.582Z,-0.31
2018-02-05T00:11:50.682Z,-0.32
2018-02-05T00:11:54.576Z,-0.31
2018-02-05T00:11:58.683Z,-0.32
2018-02-05T00:12:02.841Z,-0.32
2018-02-05T00:12:06.943Z,-0.31
2018-02-05T00:12:10.838Z,-0.32
2018-02-05T00:12:14.995Z,-0.31
2018-02-05T00:12:19.105Z,-0.32
2018-02-05T00:12:23.097Z,-0.31
2018-02-05T00:12:27.193Z,-0.31
2018-02-05T00:12:31.551Z,-0.32
2018-02-05T00:12:35.446Z,-0.32
2018-02-05T00:12:39.344Z,-0.31
2018-02-05T00:12:43.449Z,-0.32
2018-02-05T00:12:47.234Z,-0.32
2018-02-05T00:12:51.128Z,-0.32
2018-02-05T00:12:55.119Z,-0.31
2018-02-05T00:12:59.327Z,-0.31
2018-02-05T00:13:03.534Z,-0.31
2018-02-05T00:13:07.323Z,-0.32
2018-02-05T00:13:11.535Z,-0.32
2018-02-05T00:13:15.326Z,-0.31
2018-02-05T00:13:19.325Z,-0.31
2018-02-05T00:13:23.113Z,-0.31
2018-02-05T00:13:26.800Z,-0.32
2018-02-05T00:13:30.487Z,-0.32
2018-02-05T00:13:34.383Z,-0.31
2018-02-05T00:13:38.450Z,-0.31
2018-02-05T00:13:42.449Z,-0.31
2018-02-05T00:13:46.566Z,-0.32
2018-02-05T00:13:50.462Z,-0.32
2018-02-05T00:13:54.354Z,-0.32
2018-02-05T00:13:58.476Z,-0.32
2018-02-05T00:14:02.685Z,-0.31
2018-02-05T00:14:06.479Z,-0.32
2018-02-05T00:14:10.586Z,-0.31
2018-02-05T00:14:14.373Z,-0.32
2018-02-05T00:14:18.270Z,-0.31
2018-02-05T00:14:22.162Z,-0.31
2018-02-05T00:14:25.942Z,-0.31
2018-02-05T00:14:29.939Z,-0.31
2018-02-05T00:14:33.945Z,-0.32
2018-02-05T00:14:37.727Z,-0.31
2018-02-05T00:14:41.624Z,-0.32
2018-02-05T00:14:45.516Z,-0.32
2018-02-05T00:14:49.413Z,-0.32
2018-02-05T00:14:53.309Z,-0.32
2018-02-05T00:14:57.423Z,-0.32
2018-02-05T00:15:01.432Z,-0.31
2018-02-05T00:15:05.326Z,-0.31
2018-02-05T00:15:09.010Z,-0.31
2018-02-05T00:15:13.228Z,-0.32
2018-02-05T00:15:16.912Z,-0.31
2018-02-05T00:15:20.914Z,-0.32
2018-02-05T00:15:24.803Z,-0.31
2018-02-05T00:15:28.587Z,-0.31
2018-02-05T00:15:32.381Z,-0.31
2018-02-05T00:15:36.176Z,-0.32
2018-02-05T00:15:40.077Z,-0.32
2018-02-05T00:15:44.072Z,-0.31
2018-02-05T00:15:48.171Z,-0.32
2018-02-05T00:15:52.065Z,-0.31
2018-02-05T00:15:55.953Z,-0.33
2018-02-05T00:16:00.016Z,-0.32
2018-02-05T00:16:04.123Z,-0.32
2018-02-05T00:16:07.914Z,-0.33
2018-02-05T00:16:11.704Z,-0.33
2018-02-05T00:16:15.811Z,-0.32
2018-02-05T00:16:19.702Z,-0.32
2018-02-05T00:16:23.695Z,-0.32
2018-02-05T00:16:27.485Z,-0.31
2018-02-05T00:16:31.588Z,-0.31
2018-02-05T00:16:35.711Z,-0.31
2018-02-05T00:16:39.396Z,-0.31
2018-02-05T00:16:43.186Z,-0.32
2018-02-05T00:16:47.087Z,-0.31
2018-02-05T00:16:51.243Z,-0.31
2018-02-05T00:16:55.142Z,-0.31
2018-02-05T00:16:59.158Z,-0.32
2018-02-05T00:17:03.039Z,-0.32
2018-02-05T00:17:06.826Z,-0.32
2018-02-05T00:17:10.825Z,-0.32
2018-02-05T00:17:14.718Z,-0.32
2018-02-05T00:17:18.609Z,-0.31
2018-02-05T00:17:22.507Z,-0.31
2018-02-05T00:17:26.394Z,-0.31
2018-02-05T00:17:30.506Z,-0.32
2018-02-05T00:17:34.394Z,-0.31
2018-02-05T00:17:38.296Z,-0.31
2018-02-05T00:17:41.978Z,-0.32
2018-02-05T00:17:46.089Z,-0.31
2018-02-05T00:17:49.986Z,-0.31
2018-02-05T00:17:53.878Z,-0.31
2018-02-05T00:17:57.978Z,-0.31
2018-02-05T00:18:01.764Z,-0.3
2018-02-05T00:18:05.550Z,-0.31
2018-02-05T00:18:09.335Z,-0.31
2018-02-05T00:18:13.340Z,-0.3
2018-02-05T00:18:17.238Z,-0.3
2018-02-05T00:18:21.345Z,-0.31
2018-02-05T00:18:25.241Z,-0.32
2018-02-05T00:18:29.343Z,-0.31
2018-02-05T00:18:33.233Z,-0.31
2018-02-05T00:18:37.023Z,-0.31
2018-02-05T00:18:40.930Z,-0.31
2018-02-05T00:18:44.931Z,-0.31
2018-02-05T00:18:48.930Z,-0.32
2018-02-05T00:18:53.032Z,-0.31
2018-02-05T00:18:57.031Z,-0.31
2018-02-05T00:19:01.031Z,-0.31
2018-02-05T00:19:05.122Z,-0.31
2018-02-05T00:19:09.221Z,-0.31
2018-02-05T00:19:13.215Z,-0.3
2018-02-05T00:19:17.106Z,-0.31
2018-02-05T00:19:21.203Z,-0.31
2018-02-05T00:19:24.996Z,-0.3
2018-02-05T00:19:28.998Z,-0.31
2018-02-05T00:19:32.996Z,-0.3
2018-02-05T00:19:36.897Z,-0.31
2018-02-05T00:19:40.682Z,-0.3
2018-02-05T00:19:44.471Z,-0.3
2018-02-05T00:19:48.523Z,-0.31
2018-02-05T00:19:52.422Z,-0.31
2018-02-05T00:19:56.208Z,-0.31
2018-02-05T00:20:00.310Z,-0.3
2018-02-05T00:20:04.209Z,-0.31
2018-02-05T00:20:08.307Z,-0.31
2018-02-05T00:20:12.412Z,-0.3
2018-02-05T00:20:16.197Z,-0.3
2018-02-05T00:20:20.208Z,-0.31
2018-02-05T00:20:23.998Z,-0.3
2018-02-05T00:20:27.830Z,-0.3
2018-02-05T00:20:31.937Z,-0.3
2018-02-05T00:20:35.830Z,-0.3
2018-02-05T00:20:39.731Z,-0.3
2018-02-05T00:20:43.728Z,-0.3
2018-02-05T00:20:47.413Z,-0.3
2018-02-05T00:20:51.417Z,-0.3
2018-02-05T00:20:55.202Z,-0.3
2018-02-05T00:20:59.198Z,-0.3
2018-02-05T00:21:03.205Z,-0.3
2018-02-05T00:21:06.997Z,-0.3
2018-02-05T00:21:10.887Z,-0.3
2018-02-05T00:21:14.569Z,-0.29
2018-02-05T00:21:18.457Z,-0.3
2018-02-05T00:21:22.569Z,-0.29
2018-02-05T00:21:26.568Z,-0.29
2018-02-05T00:21:30.367Z,-0.29
2018-02-05T00:21:34.481Z,-0.29
2018-02-05T00:21:38.378Z,-0.29
2018-02-05T00:21:42.272Z,-0.28
2018-02-05T00:21:46.374Z,-0.29
2018-02-05T00:21:50.056Z,-0.28
2018-02-05T00:21:53.958Z,-0.29
2018-02-05T00:21:57.849Z,-0.29
2018-02-05T00:22:01.741Z,-0.28
2018-02-05T00:22:05.536Z,-0.29
2018-02-05T00:22:09.754Z,-0.28
2018-02-05T00:22:13.545Z,-0.28
2018-02-05T00:22:17.448Z,-0.28
2018-02-05T00:22:21.495Z,-0.28
2018-02-05T00:22:25.177Z,-0.28
2018-02-05T00:22:29.181Z,-0.28
2018-02-05T00:22:33.072Z,-0.27
2018-02-05T00:22:37.178Z,-0.27
2018-02-05T00:22:41.071Z,-0.27
2018-02-05T00:22:45.022Z,-0.27
2018-02-05T00:22:49.132Z,-0.27
2018-02-05T00:22:53.017Z,-0.26
2018-02-05T00:22:56.916Z,-0.27
2018-02-05T00:23:01.032Z,-0.27
2018-02-05T00:23:05.281Z,-0.26
2018-02-05T00:23:09.073Z,-0.27
2018-02-05T00:23:12.859Z,-0.26
2018-02-05T00:23:16.967Z,-0.26
2018-02-05T00:23:20.967Z,-0.26
2018-02-05T00:23:24.863Z,-0.26
2018-02-05T00:23:28.875Z,-0.26
2018-02-05T00:23:32.772Z,-0.26
2018-02-05T00:23:36.670Z,-0.26
2018-02-05T00:23:40.458Z,-0.26
2018-02-05T00:23:44.350Z,-0.26
2018-02-05T00:23:48.242Z,-0.25
2018-02-05T00:23:52.028Z,-0.25
2018-02-05T00:23:55.923Z,-0.26
2018-02-05T00:23:59.823Z,-0.25
2018-02-05T00:24:03.926Z,-0.26
2018-02-05T00:24:07.934Z,-0.25
2018-02-05T00:24:11.941Z,-0.25
2018-02-05T00:24:15.790Z,-0.25
2018-02-05T00:24:19.683Z,-0.25
2018-02-05T00:24:23.681Z,-0.25
2018-02-05T00:24:27.678Z,-0.25
2018-02-05T00:24:31.567Z,-0.26
2018-02-05T00:24:35.568Z,-0.25
2018-02-05T00:24:39.458Z,-0.25
2018-02-05T00:24:43.252Z,-0.25
2018-02-05T00:24:47.153Z,-0.25
2018-02-05T00:24:51.159Z,-0.24
2018-02-05T00:24:55.370Z,-0.26
2018-02-05T00:24:59.264Z,-0.25
2018-02-05T00:25:03.668Z,-0.24
2018-02-05T00:25:07.567Z,-0.25
2018-02-05T00:25:11.572Z,-0.26
2018-02-05T00:25:15.677Z,-0.25
2018-02-05T00:25:19.679Z,-0.25
2018-02-05T00:25:23.684Z,-0.24
2018-02-05T00:25:27.575Z,-0.24
2018-02-05T00:25:31.682Z,-0.25
2018-02-05T00:25:35.469Z,-0.24
2018-02-05T00:25:39.256Z,-0.24
2018-02-05T00:25:43.042Z,-0.24
2018-02-05T00:25:46.932Z,-0.24
2018-02-05T00:25:50.822Z,-0.25
2018-02-05T00:25:54.503Z,-0.24
2018-02-05T00:25:58.508Z,-0.25
2018-02-05T00:26:02.514Z,-0.24
2018-02-05T00:26:06.299Z,-0.24
2018-02-05T00:26:10.302Z,-0.24
2018-02-05T00:26:14.298Z,-0.24
2018-02-05T00:26:18.203Z,-0.24
2018-02-05T00:26:22.243Z,-0.24
2018-02-05T00:26:26.140Z,-0.23
2018-02-05T00:26:29.930Z,-0.23
2018-02-05T00:26:33.722Z,-0.24
2018-02-05T00:26:37.722Z,-0.23
2018-02-05T00:26:41.623Z,-0.23
2018-02-05T00:26:45.512Z,-0.24
2018-02-05T00:26:49.511Z,-0.23
2018-02-05T00:26:53.823Z,-0.23
2018-02-05T00:26:57.817Z,-0.23
2018-02-05T00:27:01.819Z,-0.23
2018-02-05T00:27:05.821Z,-0.23
2018-02-05T00:27:09.933Z,-0.23
2018-02-05T00:27:13.829Z,-0.23
2018-02-05T00:27:17.823Z,-0.23
2018-02-05T00:27:21.720Z,-0.22
2018-02-05T00:27:25.716Z,-0.23
2018-02-05T00:27:29.399Z,-0.23
2018-02-05T00:27:33.405Z,-0.23
2018-02-05T00:27:37.192Z,-0.22
2018-02-05T00:27:40.875Z,-0.23
2018-02-05T00:27:44.769Z,-0.22
2018-02-05T00:27:48.776Z,-0.23
2018-02-05T00:27:52.773Z,-0.22
2018-02-05T00:27:56.874Z,-0.22
2018-02-05T00:28:00.977Z,-0.23
2018-02-05T00:28:05.230Z,-0.22
2018-02-05T00:28:09.017Z,-0.22
2018-02-05T00:28:12.908Z,-0.22
2018-02-05T00:28:16.588Z,-0.22
2018-02-05T00:28:20.375Z,-0.22
2018-02-05T00:28:24.168Z,-0.22
2018-02-05T00:28:27.958Z,-0.22
2018-02-05T00:28:31.849Z,-0.22
2018-02-05T00:28:35.740Z,-0.23
2018-02-05T00:28:39.537Z,-0.23
2018-02-05T00:28:43.536Z,-0.22
2018-02-05T00:28:47.642Z,-0.23
2018-02-05T00:28:51.529Z,-0.23
2018-02-05T00:28:55.428Z,-0.22
2018-02-05T00:28:59.221Z,-0.22
2018-02-05T00:29:03.318Z,-0.21
2018-02-05T00:29:07.322Z,-0.21
2018-02-05T00:29:11.318Z,-0.21
2018-02-05T00:29:15.416Z,-0.22
2018-02-05T00:29:19.415Z,-0.22
2018-02-05T00:29:23.303Z,-0.21
2018-02-05T00:29:27.194Z,-0.21
2018-02-05T00:29:31.186Z,-0.21
2018-02-05T00:29:35.392Z,-0.22
2018-02-05T00:29:39.177Z,-0.21
2018-02-05T00:29:43.186Z,-0.21
2018-02-05T00:29:46.975Z,-0.22
2018-02-05T00:29:50.762Z,-0.2
2018-02-05T00:29:54.871Z,-0.21
2018-02-05T00:29:59.193Z,-0.21
2018-02-05T00:30:03.293Z,-0.2
2018-02-05T00:30:07.192Z,-0.21
2018-02-05T00:30:11.078Z,-0.21
2018-02-05T00:30:15.188Z,-0.21
2018-02-05T00:30:19.188Z,-0.21
2018-02-05T00:30:23.084Z,-0.21
2018-02-05T00:30:26.987Z,-0.21
2018-02-05T00:30:30.996Z,-0.19
2018-02-05T00:30:35.104Z,-0.21
2018-02-05T00:30:39.104Z,-0.19
2018-02-05T00:30:42.993Z,-0.2
2018-02-05T00:30:46.889Z,-0.2
2018-02-05T00:30:50.690Z,-0.2
2018-02-05T00:30:54.904Z,-0.2
2018-02-05T00:30:59.044Z,-0.2
2018-02-05T00:31:03.299Z,-0.2
2018-02-05T00:31:07.097Z,-0.2
2018-02-05T00:31:10.992Z,-0.19
2018-02-05T00:31:14.987Z,-0.2
2018-02-05T00:31:18.877Z,-0.19
2018-02-05T00:31:22.876Z,-0.2
2018-02-05T00:31:26.669Z,-0.2
2018-02-05T00:31:30.666Z,-0.2
2018-02-05T00:31:34.558Z,-0.2
2018-02-05T00:31:38.451Z,-0.2
2018-02-05T00:31:42.447Z,-0.2
2018-02-05T00:31:46.232Z,-0.2
2018-02-05T00:31:50.018Z,-0.2
2018-02-05T00:31:53.911Z,-0.2
2018-02-05T00:31:58.026Z,-0.21
2018-02-05T00:32:02.287Z,-0.19
2018-02-05T00:32:06.287Z,-0.2
2018-02-05T00:32:09.974Z,-0.2
2018-02-05T00:32:14.192Z,-0.19
2018-02-05T00:32:18.290Z,-0.2
2018-02-05T00:32:22.081Z,-0.2
2018-02-05T00:32:25.765Z,-0.19
2018-02-05T00:32:29.454Z,-0.19
2018-02-05T00:32:33.451Z,-0.19
2018-02-05T00:32:37.238Z,-0.19
2018-02-05T00:32:41.024Z,-0.19
2018-02-05T00:32:44.811Z,-0.2
2018-02-05T00:32:48.804Z,-0.19
2018-02-05T00:32:52.710Z,-0.2
2018-02-05T00:32:56.711Z,-0.2
2018-02-05T00:33:00.707Z,-0.19
2018-02-05T00:33:04.647Z,-0.2
2018-02-05T00:33:08.541Z,-0.19
2018-02-05T00:33:12.541Z,-0.19
2018-02-05T00:33:16.541Z,-0.18
2018-02-05T00:33:20.335Z,-0.19
2018-02-05T00:33:24.119Z,-0.2
2018-02-05T00:33:28.009Z,-0.18
2018-02-05T00:33:31.804Z,-0.19
2018-02-05T00:33:35.698Z,-0.19
2018-02-05T00:33:39.811Z,-0.19
2018-02-05T00:33:43.702Z,-0.19
2018-02-05T00:33:47.614Z,-0.18
2018-02-05T00:33:51.399Z,-0.19
2018-02-05T00:33:55.293Z,-0.19
2018-02-05T00:33:59.342Z,-0.18
2018-02-05T00:34:03.131Z,-0.19
2018-02-05T00:34:07.030Z,-0.18
2018-02-05T00:34:10.924Z,-0.19
2018-02-05T00:34:14.934Z,-0.18
2018-02-05T00:34:18.829Z,-0.18
2018-02-05T00:34:22.727Z,-0.19
2018-02-05T00:34:26.725Z,-0.19
2018-02-05T00:34:30.728Z,-0.19
2018-02-05T00:34:34.624Z,-0.19
2018-02-05T00:34:38.416Z,-0.19
2018-02-05T00:34:42.205Z,-0.18
2018-02-05T00:34:45.989Z,-0.18
2018-02-05T00:34:49.985Z,-0.18
2018-02-05T00:34:53.985Z,-0.18
2018-02-05T00:34:57.988Z,-0.17
2018-02-05T00:35:02.166Z,-0.18
2018-02-05T00:35:06.384Z,-0.18
2018-02-05T00:35:10.281Z,-0.18
2018-02-05T00:35:14.071Z,-0.18
2018-02-05T00:35:17.753Z,-0.18
2018-02-05T00:35:21.756Z,-0.18
2018-02-05T00:35:25.773Z,-0.18
2018-02-05T00:35:29.867Z,-0.18
2018-02-05T00:35:33.554Z,-0.18
2018-02-05T00:35:37.559Z,-0.18
2018-02-05T00:35:41.458Z,-0.17
2018-02-05T00:35:45.460Z,-0.18
2018-02-05T00:35:49.624Z,-0.18
2018-02-05T00:35:53.411Z,-0.18
2018-02-05T00:35:57.309Z,-0.18
2018-02-05T00:36:01.205Z,-0.18
2018-02-05T00:36:05.153Z,-0.18
2018-02-05T00:36:09.152Z,-0.18
2018-02-05T00:36:12.941Z,-0.17
2018-02-05T00:36:16.729Z,-0.18
2018-02-05T00:36:20.728Z,-0.18
2018-02-05T00:36:24.842Z,-0.18
2018-02-05T00:36:28.946Z,-0.17
2018-02-05T00:36:32.835Z,-0.18
2018-02-05T00:36:36.726Z,-0.17
2018-02-05T00:36:40.619Z,-0.18
2018-02-05T00:36:44.412Z,-0.17
2018-02-05T00:36:48.410Z,-0.17
2018-02-05T00:36:52.194Z,-0.18
2018-02-05T00:36:56.085Z,-0.18
2018-02-05T00:37:00.187Z,-0.17
2018-02-05T00:37:04.284Z,-0.18
2018-02-05T00:37:08.286Z,-0.18
2018-02-05T00:37:12.285Z,-0.17
2018-02-05T00:37:16.285Z,-0.18
2018-02-05T00:37:20.182Z,-0.17
2018-02-05T00:37:24.184Z,-0.17
2018-02-05T00:37:27.969Z,-0.16
2018-02-05T00:37:32.190Z,-0.17
2018-02-05T00:37:36.192Z,-0.18
2018-02-05T00:37:40.295Z,-0.17
2018-02-05T00:37:44.190Z,-0.17
2018-02-05T00:37:47.980Z,-0.17
2018-02-05T00:37:51.873Z,-0.17
2018-02-05T00:37:55.768Z,-0.17
2018-02-05T00:37:59.979Z,-0.17
2018-02-05T00:38:04.197Z,-0.16
2018-02-05T00:38:07.991Z,-0.16
2018-02-05T00:38:11.779Z,-0.16
2018-02-05T00:38:15.773Z,-0.16
2018-02-05T00:38:19.776Z,-0.16
2018-02-05T00:38:23.560Z,-0.16
2018-02-05T00:38:27.563Z,-0.16
2018-02-05T00:38:31.466Z,-0.16
2018-02-05T00:38:35.466Z,-0.16
2018-02-05T00:38:39.154Z,-0.16
2018-02-05T00:38:42.941Z,-0.16
2018-02-05T00:38:47.050Z,-0.16
2018-02-05T00:38:50.938Z,-0.15
2018-02-05T00:38:55.039Z,-0.16
2018-02-05T00:38:58.828Z,-0.16
2018-02-05T00:39:02.936Z,-0.15
2018-02-05T00:39:06.730Z,-0.16
2018-02-05T00:39:10.625Z,-0.15
2018-02-05T00:39:14.738Z,-0.15
2018-02-05T00:39:18.777Z,-0.15
2018-02-05T00:39:22.673Z,-0.15
2018-02-05T00:39:26.574Z,-0.15
2018-02-05T00:39:30.359Z,-0.15
2018-02-05T00:39:34.250Z,-0.15
2018-02-05T00:39:38.041Z,-0.14
2018-02-05T00:39:42.151Z,-0.15
2018-02-05T00:39:46.254Z,-0.14
2018-02-05T00:39:50.359Z,-0.15
2018-02-05T00:39:54.150Z,-0.15
2018-02-05T00:39:58.052Z,-0.15
2018-02-05T00:40:01.948Z,-0.15
2018-02-05T00:40:05.859Z,-0.15
2018-02-05T00:40:09.656Z,-0.14
2018-02-05T00:40:13.442Z,-0.13
2018-02-05T00:40:17.343Z,-0.14
2018-02-05T00:40:21.345Z,-0.14
2018-02-05T00:40:25.339Z,-0.14
2018-02-05T00:40:29.130Z,-0.14
2018-02-05T00:40:32.812Z,-0.14
2018-02-05T00:40:36.815Z,-0.14
2018-02-05T00:40:40.813Z,-0.13
2018-02-05T00:40:44.808Z,-0.14
2018-02-05T00:40:48.494Z,-0.13
2018-02-05T00:40:52.703Z,-0.14
2018-02-05T00:40:56.698Z,-0.13
2018-02-05T00:41:00.802Z,-0.12
2018-02-05T00:41:04.807Z,-0.12
2018-02-05T00:41:08.597Z,-0.12
2018-02-05T00:41:12.600Z,-0.11
2018-02-05T00:41:16.389Z,-0.12
2018-02-05T00:41:20.286Z,-0.11
2018-02-05T00:41:24.072Z,-0.11
2018-02-05T00:41:27.960Z,-0.11
2018-02-05T00:41:31.856Z,-0.11
2018-02-05T00:41:35.964Z,-0.11
2018-02-05T00:41:39.862Z,-0.11
2018-02-05T00:41:43.756Z,-0.11
2018-02-05T00:41:47.758Z,-0.11
2018-02-05T00:41:51.547Z,-0.11
2018-02-05T00:41:55.651Z,-0.1
2018-02-05T00:41:59.649Z,-0.11
2018-02-05T00:42:03.672Z,-0.1
2018-02-05T00:42:07.853Z,-0.1
2018-02-05T00:42:11.962Z,-0.1
2018-02-05T00:42:15.857Z,-0.09
2018-02-05T00:42:19.652Z,-0.1
2018-02-05T00:42:23.555Z,-0.1
2018-02-05T00:42:27.237Z,-0.1
2018-02-05T00:42:31.027Z,-0.09
2018-02-05T00:42:35.028Z,-0.09
2018-02-05T00:42:39.022Z,-0.09
2018-02-05T00:42:42.810Z,-0.09
2018-02-05T00:42:46.703Z,-0.09
2018-02-05T00:42:50.386Z,-0.08
2018-02-05T00:42:54.384Z,-0.08
2018-02-05T00:42:58.177Z,-0.09
2018-02-05T00:43:02.237Z,-0.08
2018-02-05T00:43:06.238Z,-0.09
2018-02-05T00:43:10.240Z,-0.09
2018-02-05T00:43:14.237Z,-0.08
2018-02-05T00:43:18.124Z,-0.08
2018-02-05T00:43:21.917Z,-0.08
2018-02-05T00:43:25.916Z,-0.08
2018-02-05T00:43:29.701Z,-0.08
2018-02-05T00:43:33.494Z,-0.08
2018-02-05T00:43:37.174Z,-0.08
2018-02-05T00:43:40.966Z,-0.08
2018-02-05T00:43:45.186Z,-0.09
2018-02-05T00:43:49.081Z,-0.08
2018-02-05T00:43:53.075Z,-0.09
2018-02-05T00:43:56.967Z,-0.08
2018-02-05T00:44:00.855Z,-0.08
2018-02-05T00:44:05.061Z,-0.08
2018-02-05T00:44:08.952Z,-0.08
2018-02-05T00:44:12.861Z,-0.08
2018-02-05T00:44:16.655Z,-0.08
2018-02-05T00:44:20.438Z,-0.09
2018-02-05T00:44:24.332Z,-0.09
2018-02-05T00:44:28.123Z,-0.08
2018-02-05T00:44:32.119Z,-0.09
2018-02-05T00:44:35.806Z,-0.08
2018-02-05T00:44:40.017Z,-0.09
2018-02-05T00:44:44.017Z,-0.09
2018-02-05T00:44:48.019Z,-0.09
2018-02-05T00:44:52.023Z,-0.09
2018-02-05T00:44:55.815Z,-0.09
2018-02-05T00:44:59.819Z,-0.09
2018-02-05T00:45:03.913Z,-0.09
2018-02-05T00:45:08.015Z,-0.1
2018-02-05T00:45:11.913Z,-0.1
2018-02-05T00:45:15.715Z,-0.1
2018-02-05T00:45:19.609Z,-0.1
2018-02-05T00:45:23.394Z,-0.1
2018-02-05T00:45:27.281Z,-0.09
2018-02-05T00:45:31.440Z,-0.1
2018-02-05T00:45:35.345Z,-0.1
2018-02-05T00:45:39.347Z,-0.11
2018-02-05T00:45:43.242Z,-0.11
2018-02-05T00:45:47.035Z,-0.11
2018-02-05T00:45:51.041Z,-0.11
2018-02-05T00:45:54.832Z,-0.1
2018-02-05T00:45:58.830Z,-0.12
2018-02-05T00:46:02.922Z,-0.11
2018-02-05T00:46:06.601Z,-0.11
2018-02-05T00:46:10.390Z,-0.11
2018-02-05T00:46:14.597Z,-0.12
2018-02-05T00:46:18.494Z,-0.11
2018-02-05T00:46:22.389Z,-0.11
2018-02-05T00:46:26.339Z,-0.11
2018-02-05T00:46:30.235Z,-0.12
2018-02-05T00:46:34.027Z,-0.12
2018-02-05T00:46:38.057Z,-0.12
2018-02-05T00:46:41.844Z,-0.12
2018-02-05T00:46:45.628Z,-0.12
2018-02-05T00:46:49.727Z,-0.12
2018-02-05T00:46:53.727Z,-0.11
2018-02-05T00:46:57.620Z,-0.12
2018-02-05T00:47:01.834Z,-0.12
2018-02-05T00:47:05.829Z,-0.12
2018-02-05T00:47:09.941Z,-0.12
2018-02-05T00:47:13.723Z,-0.12
2018-02-05T00:47:17.411Z,-0.12
2018-02-05T00:47:21.094Z,-0.12
2018-02-05T00:47:25.200Z,-0.13
2018-02-05T00:47:28.984Z,-0.14
2018-02-05T00:47:32.887Z,-0.13
2018-02-05T00:47:36.675Z,-0.12
2018-02-05T00:47:40.783Z,-0.12
2018-02-05T00:47:44.568Z,-0.12
2018-02-05T00:47:48.256Z,-0.13
2018-02-05T00:47:52.042Z,-0.13
2018-02-05T00:47:56.043Z,-0.12
2018-02-05T00:47:59.934Z,-0.12
2018-02-05T00:48:03.826Z,-0.12
2018-02-05T00:48:07.722Z,-0.12
2018-02-05T00:48:11.928Z,-0.13
2018-02-05T00:48:15.925Z,-0.13
2018-02-05T00:48:19.820Z,-0.13
2018-02-05T00:48:23.712Z,-0.13
2018-02-05T00:48:27.610Z,-0.14
2018-02-05T00:48:31.396Z,-0.14
2018-02-05T00:48:35.286Z,-0.13
2018-02-05T00:48:39.076Z,-0.14
2018-02-05T00:48:42.870Z,-0.14
2018-02-05T00:48:46.764Z,-0.14
2018-02-05T00:48:50.756Z,-0.14
2018-02-05T00:48:54.651Z,-0.14
2018-02-05T00:48:58.863Z,-0.14
2018-02-05T00:49:02.650Z,-0.14
2018-02-05T00:49:06.329Z,-0.15
2018-02-05T00:49:10.224Z,-0.15
2018-02-05T00:49:14.118Z,-0.15
2018-02-05T00:49:18.015Z,-0.15
2018-02-05T00:49:22.016Z,-0.15
2018-02-05T00:49:25.809Z,-0.15
2018-02-05T00:49:29.696Z,-0.15
2018-02-05T00:49:33.486Z,-0.15
2018-02-05T00:49:37.483Z,-0.16
2018-02-05T00:49:41.374Z,-0.15
2018-02-05T00:49:45.169Z,-0.17
2018-02-05T00:49:49.063Z,-0.17
2018-02-05T00:49:53.067Z,-0.16
2018-02-05T00:49:56.751Z,-0.16
2018-02-05T00:50:00.756Z,-0.16
2018-02-05T00:50:05.083Z,-0.17
2018-02-05T00:50:08.862Z,-0.18
2018-02-05T00:50:12.757Z,-0.17
2018-02-05T00:50:16.863Z,-0.17
2018-02-05T00:50:20.766Z,-0.18
2018-02-05T00:50:24.758Z,-0.17
2018-02-05T00:50:28.758Z,-0.17
2018-02-05T00:50:32.876Z,-0.18
2018-02-05T00:50:36.975Z,-0.18
2018-02-05T00:50:41.080Z,-0.17
2018-02-05T00:50:45.024Z,-0.18
2018-02-05T00:50:48.823Z,-0.18
2018-02-05T00:50:52.721Z,-0.18
2018-02-05T00:50:56.508Z,-0.19